Aérodrome :
LOGIN :

S'inscrire | Disclaimer

   EN    FR    IT 

 










Légende :    VFR   VFR Marginal   IFR   IFR Intensif   IFR Très Intensif
Visi : 
Plafond : 
>= 8 km
>= 3000ft
5 à 8 km
1000 à 3000 ft
1500m à 5 km
500 à 1000 ft
800 à 1500m
200 à 500 ft
< 800m
< 200 ft
Symboles :   Orages  Brouillard  Fortes neiges  Fortes précipitations  Vent > 20 kt
SIGMETs :   Divers  Orages  Givrage  Turbulence  Onde Orograph.  Cendres Volcan.






- Altitude de l'aérodrome : -11 ft
- Code IATA : AMS


EHAM - Amsterdam Schiphol

DERNIER METAR :
  • 241655Z 19010KT CAVOK 15/08 Q1025 NOSIG

METARs EXPIRÉS :
  • 241625Z 19010KT CAVOK 16/08 Q1025 NOSIG
  • 241555Z 20015KT 160V220 CAVOK 17/07 Q1025 NOSIG
  • 241525Z 19016KT 170V230 CAVOK 18/07 Q1025 NOSIG
  • 241455Z 20015KT CAVOK 18/08 Q1025 NOSIG
  • 241425Z 20014KT CAVOK 18/08 Q1025 NOSIG

TAF COR TAF EHAM
Valide du 24 à 12h jusqu'au 25 à 18h UTC


241100Z 2412/2518 20015KT CAVOK
BECMG 2416/2418 19011KT
BECMG 2509/2511 25007KT SCT020 BKN030
PROB30
TEMPO 2514/2518 6000 RA SCT012 BKN018
BECMG 2514/2517 35007KT



MET'MAP, la Météo Aéronautique d'un coup d'oeil ! - Copyright ORBIFLY Décembre 2007 - Disclaimer

ORBIFLY MET'MAP TEAM :

Programmation & Développement : Alexandra Zaïnal
Sur une idée originale de : Baudouin d'Aumeries
Assistance à la programmation : Marc-Olivier Méhu
Soutien technique & logistique : Manuel Goepfert

Contact : metmap@orbifly.com




SOURCES & CREDITS :

   NOAA